logo tempoitalia

Diretta Meteo Walnut Ridge, Stati Uniti (USA)lunedì 31 agosto ore 00:56

Mappa
Sereno 24 °C Sereno 24 Ore: T.min 17 T.max 34
Ponente Nord Km/h 5.5 Punto di rugiada: 19 °C Umidità: 73% Visibilità: 10 Km
Il sole sorge alle: 06:34 Il sole tramonta alle: 19:33
31 Agosto 2026 00:56 tempo osservato: Sereno Sereno 24 73 1017 vento: Nord N 5.5
30 Agosto 2026 23:56 tempo osservato: Sereno Sereno 24 73 1016 vento: Nord S 9.3
30 Agosto 2026 22:56 tempo osservato: Sereno Sereno 26 65 1016 vento: Nord N 0
30 Agosto 2026 21:56 tempo osservato: Sereno Sereno 26 65 1016 vento: Nord N 5.5
30 Agosto 2026 20:56 tempo osservato: Sereno Sereno 26 69 1016 vento: Nord S/SE 11.1
30 Agosto 2026 19:56 tempo osservato: Sereno Sereno 29 54 1015 vento: Nord S 7.4
30 Agosto 2026 18:56 tempo osservato: Sereno Sereno 31 48 1015 vento: Nord S 7.4
30 Agosto 2026 17:56 tempo osservato: Sereno Sereno 33 38 1016 vento: Nord S/SO 18.5
30 Agosto 2026 16:56 tempo osservato: Sereno Sereno 34 38 1016 vento: Nord S 14.8
30 Agosto 2026 15:56 tempo osservato: Sereno Sereno 34 36 1016 vento: Nord S 18.5
30 Agosto 2026 14:56 tempo osservato: Sereno Sereno 34 34 1016 vento: Nord S 24
30 Agosto 2026 13:56 tempo osservato: Sereno Sereno 34 34 1017 vento: Nord S/SO 16.7
30 Agosto 2026 12:56 tempo osservato: Sereno Sereno 33 38 1018 vento: Nord S/SO 22.2
30 Agosto 2026 11:56 tempo osservato: Sereno Sereno 32 40 1018 vento: Nord S/SO 16.7
30 Agosto 2026 10:56 tempo osservato: Sereno Sereno 30 48 1018 vento: Nord S 13
30 Agosto 2026 09:56 tempo osservato: Sereno Sereno 27 57 1018 vento: Nord S 7.4
30 Agosto 2026 08:56 tempo osservato: Sereno Sereno 23 78 1019 vento: Nord N 0
30 Agosto 2026 07:56 tempo osservato: Sereno Sereno 20 93 1019 vento: Nord N 0
30 Agosto 2026 06:56 tempo osservato: Sereno Sereno 18 100 1018 vento: Nord N 0
30 Agosto 2026 05:56 tempo osservato: Sereno Sereno 17 100 1017 vento: Nord N/NO 7.4
30 Agosto 2026 04:56 tempo osservato: Sereno Sereno 19 100 1017 vento: Nord N 0
30 Agosto 2026 03:56 tempo osservato: Sereno Sereno 18 100 1017 vento: Nord N 0
30 Agosto 2026 02:56 tempo osservato: Sereno Sereno 18 100 1017 vento: Nord N 5.5
30 Agosto 2026 01:56 tempo osservato: Sereno Sereno 20 88 1018 vento: Nord N 0